Skip Navigation LinksHome page > Weather > Current weather Skip Navigation Links

Current Weather

Honolulu Intl, Honolulu

For information only: do not use for flight planning or navigation.
Latest weather
Observation time Thursday, October 30, 2014 8:53 PM HST
Local time Thursday, October 30, 2014 9:31 PM HST
Flight conditions Visual Meteorological Conditions
Winds
Wind direction East-Northeast (60°)
Wind speed 17 mph
Wind gusting to 22 mph
Visibility 10 mi.
Sky condition
Ceiling unlimited
Cloud layer few clouds 3,000 ft.
Cloud layer scattered clouds 6,500 ft.
Temperature 79°F
Dewpoint 66°F
Altimeter 30.06 in.Hg
Derived measurements
Relative humidity 65%
Heat index 79°F
Density altitude 1435 ft.
Sea-level pressure 30.05 in.Hg
Remarks
Automated weather observing station with precipitation discriminator.
METAR PHNL 310653Z 06015G19KT 10SM FEW030 SCT065 26/19 A3006 RMK AO2 SLP177 T02610189

Settings

Location code

InnerDrive.Weather 4.0.5399.0 Release CLR 4.0.30319.34014
Copyright ©2014 Inner Drive Technology. All rights reserved. Portions Copyright ©1986-2014 David Braverman.

Find weather

Site navigation


Skip Navigation Links

Place info

Page info

PayPal - The safer, easier way to pay online!

Return home.

Copyright ©2014 Inner Drive Technology. Purveyors of fine, hand-crafted computer software. Page printed 2014-10-31T07:31:31 UTC.